Time;durP1;ratioP1;P1;durP2;ratioP2;P2;SDS_P1;SDS_P2;PMS_P1;PMS_P2;Temp;Humidity;BMP_temperature;BMP_pressure;BME280_temperature;BME280_humidity;BME280_pressure;Samples;Min_cycle;Max_cycle;Signal;HPM_P1;HPM_P2
2022/12/07 00:01:05;;;;;;;23.88;14.52;;;2.30;99.90;;;;;;4374515;28;10000929;-75
2022/12/07 00:03:30;;;;;;;26.67;15.10;;;2.30;99.90;;;;;;5065095;28;20044;-74
2022/12/07 00:06:00;;;;;;;26.20;15.32;;;2.30;99.90;;;;;;5078538;28;20027;-74
2022/12/07 00:08:25;;;;;;;29.13;16.88;;;2.30;99.90;;;;;;5083475;28;20078;-74
2022/12/07 00:10:51;;;;;;;30.08;16.95;;;2.30;99.90;;;;;;5077031;28;20024;-74
2022/12/07 00:13:16;;;;;;;28.70;17.33;;;2.30;99.90;;;;;;5073993;28;20060;-74
2022/12/07 00:15:42;;;;;;;29.85;16.45;;;2.30;99.90;;;;;;5080469;28;20028;-74
2022/12/07 00:18:08;;;;;;;30.98;17.42;;;2.30;99.90;;;;;;5079987;28;20635;-74
2022/12/07 00:20:33;;;;;;;34.75;17.55;;;2.40;99.90;;;;;;5077316;28;20032;-73
2022/12/07 00:22:59;;;;;;;34.30;17.98;;;2.40;99.90;;;;;;5076620;28;20024;-74
2022/12/07 00:25:25;;;;;;;31.85;18.15;;;2.30;99.90;;;;;;5082918;28;20137;-74
2022/12/07 00:27:53;;;;;;;30.05;17.65;;;2.30;99.90;;;;;;5079200;28;20105;-74
2022/12/07 00:30:19;;;;;;;31.27;18.60;;;2.40;99.90;;;;;;5072908;28;20025;-74
2022/12/07 00:32:44;;;;;;;33.63;18.20;;;2.40;99.90;;;;;;5075163;28;20847;-74
2022/12/07 00:35:10;;;;;;;28.98;17.60;;;2.40;99.90;;;;;;5080186;28;20308;-74
2022/12/07 00:37:35;;;;;;;33.05;18.50;;;2.40;99.90;;;;;;5084055;28;20020;-74
2022/12/07 00:40:01;;;;;;;32.92;18.73;;;2.40;99.90;;;;;;5086336;28;20024;-74
2022/12/07 00:42:27;;;;;;;30.73;17.90;;;2.50;99.90;;;;;;5079599;28;20032;-74
2022/12/07 00:44:52;;;;;;;29.98;17.35;;;2.50;99.90;;;;;;5078915;28;20032;-74
2022/12/07 00:47:18;;;;;;;32.33;18.48;;;2.50;99.90;;;;;;5082105;28;20492;-74
2022/12/07 00:49:43;;;;;;;34.58;18.35;;;2.50;99.90;;;;;;5086729;28;20733;-74
2022/12/07 00:52:09;;;;;;;33.72;19.27;;;2.50;99.90;;;;;;5077620;28;20081;-75
2022/12/07 00:54:35;;;;;;;32.63;18.65;;;2.50;99.90;;;;;;5081463;28;20024;-75
2022/12/07 00:57:00;;;;;;;33.90;19.00;;;2.50;99.90;;;;;;5070912;28;20056;-75
2022/12/07 00:59:26;;;;;;;33.30;19.50;;;2.50;99.90;;;;;;5083043;28;20115;-75
2022/12/07 01:01:51;;;;;;;33.53;19.38;;;2.50;99.90;;;;;;5083802;28;20024;-75
2022/12/07 01:04:17;;;;;;;38.47;21.63;;;2.50;99.90;;;;;;5079265;28;20039;-75
2022/12/07 01:06:42;;;;;;;38.47;20.48;;;2.60;99.90;;;;;;5079399;28;20394;-75
2022/12/07 01:09:08;;;;;;;39.85;20.95;;;2.60;99.90;;;;;;5085574;28;20035;-75
2022/12/07 01:11:34;;;;;;;35.97;20.45;;;2.60;99.90;;;;;;5081864;28;20038;-75
2022/12/07 01:14:01;;;;;;;36.80;20.45;;;2.60;99.90;;;;;;5077214;28;20149;-75
2022/12/07 01:16:28;;;;;;;39.53;21.38;;;2.60;99.90;;;;;;5080937;28;20028;-75
2022/12/07 01:18:56;;;;;;;37.15;20.63;;;2.60;99.90;;;;;;5081283;28;20043;-75
2022/12/07 01:21:37;;;;;;;39.53;21.98;;;2.60;99.90;;;;;;5081010;28;20086;-75
2022/12/07 01:24:05;;;;;;;41.75;21.85;;;2.60;99.90;;;;;;5075405;28;20082;-75
2022/12/07 01:26:31;;;;;;;41.38;22.10;;;2.60;99.90;;;;;;5074644;28;20020;-75
2022/12/07 01:28:58;;;;;;;41.08;22.10;;;2.60;99.90;;;;;;5080712;28;20031;-75
2022/12/07 01:31:26;;;;;;;39.40;22.25;;;2.60;99.90;;;;;;5081407;28;20039;-75
2022/12/07 01:33:55;;;;;;;42.50;23.38;;;2.60;99.90;;;;;;5076610;28;20028;-75
2022/12/07 01:36:22;;;;;;;44.30;23.48;;;2.60;99.90;;;;;;5080133;28;20067;-74
2022/12/07 01:38:52;;;;;;;44.50;24.63;;;2.70;99.90;;;;;;5074046;28;20609;-74
2022/12/07 01:41:18;;;;;;;44.55;23.10;;;2.70;99.90;;;;;;5084309;28;20063;-75
2022/12/07 01:44:10;;;;;;;45.53;24.35;;;2.70;99.90;;;;;;5079728;28;20044;-74
2022/12/07 01:46:37;;;;;;;44.03;24.13;;;2.70;99.90;;;;;;5082555;28;20052;-74
2022/12/07 01:49:06;;;;;;;42.88;24.42;;;2.70;99.90;;;;;;5085496;28;20027;-74
2022/12/07 01:51:31;;;;;;;48.28;25.17;;;2.70;99.90;;;;;;5093954;28;20489;-75
2022/12/07 01:53:59;;;;;;;46.05;23.77;;;2.70;99.90;;;;;;5077370;28;20039;-75
2022/12/07 01:56:27;;;;;;;44.60;24.10;;;2.70;99.90;;;;;;5080973;28;20028;-74
2022/12/07 01:58:57;;;;;;;44.35;24.65;;;2.70;99.90;;;;;;5077769;28;20038;-74
2022/12/07 02:01:22;;;;;;;44.95;24.33;;;2.60;99.90;;;;;;5086448;28;20040;-74
2022/12/07 02:03:48;;;;;;;46.13;24.33;;;2.70;99.90;;;;;;5083991;28;20042;-74
2022/12/07 02:06:20;;;;;;;52.55;26.65;;;2.70;99.90;;;;;;5078905;28;20065;-75
2022/12/07 02:08:46;;;;;;;47.40;25.17;;;2.70;99.90;;;;;;5081541;28;20024;-74
2022/12/07 02:11:12;;;;;;;52.15;26.27;;;2.70;99.90;;;;;;5076999;28;20114;-75
2022/12/07 02:13:40;;;;;;;47.30;25.17;;;2.70;99.90;;;;;;5083199;28;20134;-75
2022/12/07 02:16:21;;;;;;;48.72;24.98;;;2.70;99.90;;;;;;5078726;28;20064;-75
2022/12/07 02:18:55;;;;;;;49.47;25.92;;;2.70;99.90;;;;;;5078417;28;20031;-75
2022/12/07 02:21:51;;;;;;;46.80;24.45;;;2.70;99.90;;;;;;5082581;28;20097;-75
2022/12/07 02:24:33;;;;;;;50.80;26.45;;;2.80;99.90;;;;;;5071303;28;20039;-75
2022/12/07 02:27:25;;;;;;;49.60;25.30;;;2.80;99.90;;;;;;5080431;28;20494;-75
2022/12/07 02:30:04;;;;;;;44.80;24.48;;;2.80;99.90;;;;;;5076414;28;20035;-75
2022/12/07 02:32:44;;;;;;;47.70;24.65;;;2.80;99.90;;;;;;5074509;28;20111;-74
2022/12/07 02:35:28;;;;;;;52.25;26.45;;;2.80;99.90;;;;;;5071746;28;20386;-74
2022/12/07 02:38:09;;;;;;;48.50;24.70;;;2.80;99.90;;;;;;5078827;28;20021;-75
2022/12/07 02:40:41;;;;;;;47.35;24.63;;;2.80;99.90;;;;;;5076132;28;20070;-74
2022/12/07 02:43:23;;;;;;;34.70;17.50;;;2.80;99.90;;;;;;5077525;28;20031;-75
2022/12/07 02:45:51;;;;;;;47.60;24.85;;;2.80;99.90;;;;;;5079498;28;20028;-74
2022/12/07 02:48:19;;;;;;;47.47;24.48;;;2.80;99.90;;;;;;5080851;28;20028;-74
2022/12/07 02:50:49;;;;;;;44.30;24.17;;;2.80;99.90;;;;;;5078457;28;20040;-74
2022/12/07 02:53:34;;;;;;;44.25;24.17;;;2.70;99.90;;;;;;5075450;28;20035;-74
2022/12/07 02:56:10;;;;;;;44.88;24.45;;;2.80;99.90;;;;;;5083931;28;20555;-75
2022/12/07 02:59:03;;;;;;;45.85;24.45;;;2.80;99.90;;;;;;5080300;28;20623;-74
2022/12/07 03:01:45;;;;;;;49.95;25.00;;;2.80;99.90;;;;;;5080276;28;20127;-74
2022/12/07 03:04:48;;;;;;;45.90;24.58;;;2.80;99.90;;;;;;5071147;28;20025;-74
2022/12/07 03:07:37;;;;;;;48.13;24.63;;;2.80;99.90;;;;;;5076320;28;20123;-74
2022/12/07 03:10:19;;;;;;;45.28;23.67;;;2.80;99.90;;;;;;5079267;28;20021;-74
2022/12/07 03:13:10;;;;;;;43.63;22.93;;;2.80;99.90;;;;;;5072702;28;20035;-74
2022/12/07 03:15:59;;;;;;;41.17;22.55;;;2.90;99.90;;;;;;5067039;28;20559;-74
2022/12/07 03:18:30;;;;;;;42.78;22.90;;;2.80;99.90;;;;;;5065074;28;20061;-74
2022/12/07 03:21:02;;;;;;;40.28;22.58;;;2.90;99.90;;;;;;5079981;28;20627;-74
2022/12/07 03:23:31;;;;;;;40.30;22.45;;;2.90;99.90;;;;;;5071027;28;20085;-74
2022/12/07 03:25:59;;;;;;;41.47;21.98;;;2.90;99.90;;;;;;5069623;28;20032;-74
2022/12/07 03:28:31;;;;;;;39.83;21.92;;;2.90;99.90;;;;;;5068157;28;20028;-74
2022/12/07 03:31:10;;;;;;;45.03;23.38;;;2.90;99.90;;;;;;5071762;28;20496;-75
2022/12/07 03:34:04;;;;;;;41.53;22.85;;;2.90;99.90;;;;;;5068040;28;20032;-74
2022/12/07 03:36:38;;;;;;;42.70;23.50;;;2.90;99.90;;;;;;5036885;28;20068;-74
2022/12/07 03:39:11;;;;;;;38.85;22.23;;;2.90;99.90;;;;;;5074692;28;20028;-74
2022/12/07 03:41:38;;;;;;;40.88;21.85;;;2.90;99.90;;;;;;5081080;28;20490;-74
2022/12/07 03:44:05;;;;;;;39.88;22.23;;;2.90;99.90;;;;;;5084831;28;20036;-74
2022/12/07 03:46:37;;;;;;;40.70;22.33;;;2.90;99.90;;;;;;5088159;28;20039;-74
2022/12/07 03:49:24;;;;;;;42.85;21.85;;;2.90;99.90;;;;;;5083651;28;20401;-74
2022/12/07 03:52:07;;;;;;;37.78;20.98;;;2.90;99.90;;;;;;5077310;28;20028;-74
2022/12/07 03:54:43;;;;;;;42.83;21.90;;;2.90;99.90;;;;;;5081991;28;20762;-74
2022/12/07 03:57:10;;;;;;;41.67;21.95;;;2.90;99.90;;;;;;5076556;28;20032;-75
2022/12/07 03:59:37;;;;;;;47.55;23.38;;;2.90;99.90;;;;;;5084897;28;20655;-74
2022/12/07 04:02:05;;;;;;;42.85;23.60;;;2.90;99.90;;;;;;5081446;28;20170;-74
2022/12/07 04:04:32;;;;;;;42.53;22.83;;;2.90;99.90;;;;;;5084554;28;20112;-74
2022/12/07 04:06:58;;;;;;;39.75;22.80;;;2.90;99.90;;;;;;5086232;28;20512;-74
2022/12/07 04:09:23;;;;;;;39.40;20.52;;;2.90;99.90;;;;;;5083732;28;20036;-74
2022/12/07 04:11:49;;;;;;;33.28;19.15;;;3.00;99.90;;;;;;5080332;28;20040;-74
2022/12/07 04:14:18;;;;;;;31.88;17.90;;;3.00;99.90;;;;;;5078821;28;20024;-74
2022/12/07 04:16:44;;;;;;;31.10;18.30;;;3.00;99.90;;;;;;5076886;28;20114;-74
2022/12/07 04:19:10;;;;;;;28.70;17.73;;;3.00;99.90;;;;;;5078396;28;20031;-74
2022/12/07 04:21:35;;;;;;;26.30;15.63;;;3.00;99.90;;;;;;5083763;28;20028;-74
2022/12/07 04:24:01;;;;;;;27.05;16.73;;;3.00;99.90;;;;;;5082786;28;20363;-74
2022/12/07 04:26:28;;;;;;;29.58;16.80;;;3.10;99.90;;;;;;5084712;28;20772;-74
2022/12/07 04:28:53;;;;;;;26.85;15.15;;;3.10;99.90;;;;;;5081868;28;20042;-74
2022/12/07 04:31:19;;;;;;;24.90;15.65;;;3.10;99.90;;;;;;5084503;28;20032;-74
2022/12/07 04:33:44;;;;;;;24.88;15.60;;;3.10;99.90;;;;;;5081742;28;20035;-74
2022/12/07 04:36:10;;;;;;;27.33;14.65;;;3.10;99.90;;;;;;5084126;28;20058;-73
2022/12/07 04:38:36;;;;;;;22.83;14.77;;;3.10;99.90;;;;;;5081466;28;20403;-74
2022/12/07 04:41:06;;;;;;;23.55;14.65;;;3.00;99.90;;;;;;5084184;28;20616;-74
2022/12/07 04:43:32;;;;;;;25.13;14.70;;;3.10;99.90;;;;;;5081609;28;20036;-74
2022/12/07 04:45:57;;;;;;;26.77;15.55;;;3.10;99.90;;;;;;5081013;28;20039;-74
2022/12/07 04:48:23;;;;;;;25.13;15.63;;;3.10;99.90;;;;;;5085689;28;20489;-74
2022/12/07 04:50:52;;;;;;;23.15;14.63;;;3.10;99.90;;;;;;5076434;28;20032;-74
2022/12/07 04:53:18;;;;;;;24.63;14.82;;;3.10;99.90;;;;;;5075411;28;20031;-74
2022/12/07 04:55:44;;;;;;;24.20;14.55;;;3.10;99.90;;;;;;5082530;28;20028;-73
2022/12/07 04:58:11;;;;;;;23.63;14.25;;;3.10;99.90;;;;;;5083278;28;20035;-73
2022/12/07 05:00:36;;;;;;;24.95;14.38;;;3.10;99.90;;;;;;5080150;28;20079;-74
2022/12/07 05:03:02;;;;;;;23.60;13.90;;;3.10;99.90;;;;;;5077001;28;21071;-73
2022/12/07 05:05:28;;;;;;;21.85;14.15;;;3.10;99.90;;;;;;5082611;28;20517;-73
2022/12/07 05:07:53;;;;;;;26.23;14.85;;;3.10;99.90;;;;;;5078373;28;20035;-74
2022/12/07 05:10:19;;;;;;;22.98;14.15;;;3.10;99.90;;;;;;5082173;28;20115;-74
2022/12/07 05:12:45;;;;;;;22.15;14.38;;;3.10;99.90;;;;;;5076757;28;20517;-74
2022/12/07 05:15:12;;;;;;;20.40;13.25;;;3.10;99.90;;;;;;5083113;28;20028;-73
2022/12/07 05:17:37;;;;;;;22.55;13.98;;;3.10;99.90;;;;;;5081938;28;20043;-73
2022/12/07 05:20:04;;;;;;;21.30;13.40;;;3.10;99.90;;;;;;5090234;28;20044;-73
2022/12/07 05:22:30;;;;;;;22.92;13.35;;;3.10;99.90;;;;;;5077321;28;20036;-73
2022/12/07 05:24:56;;;;;;;21.63;12.93;;;3.10;99.90;;;;;;5074724;28;20031;-73
2022/12/07 05:27:22;;;;;;;21.50;12.55;;;3.10;99.90;;;;;;5085932;28;20436;-73
2022/12/07 05:29:49;;;;;;;20.63;11.90;;;3.10;99.90;;;;;;5079386;28;20032;-73
2022/12/07 05:32:15;;;;;;;20.48;11.68;;;3.20;99.90;;;;;;5080599;28;20039;-73
2022/12/07 05:34:40;;;;;;;17.67;10.70;;;3.20;99.90;;;;;;5082287;28;20040;-73
2022/12/07 05:37:06;;;;;;;15.95;10.93;;;3.20;99.90;;;;;;5079967;28;20451;-73
2022/12/07 05:39:31;;;;;;;17.00;11.15;;;3.20;99.90;;;;;;5074400;28;20080;-74
2022/12/07 05:42:12;;;;;;;17.85;11.45;;;3.20;99.90;;;;;;5068098;28;20032;-74
2022/12/07 05:44:42;;;;;;;19.98;12.02;;;3.20;99.90;;;;;;5082186;28;20114;-73
2022/12/07 05:47:08;;;;;;;19.30;12.23;;;3.20;99.90;;;;;;5077996;28;20135;-73
2022/12/07 05:49:34;;;;;;;18.13;11.77;;;3.20;99.90;;;;;;5081180;28;20111;-74
2022/12/07 05:52:00;;;;;;;18.77;11.23;;;3.10;99.90;;;;;;5081276;28;20936;-74
2022/12/07 05:54:26;;;;;;;19.00;11.30;;;3.10;99.90;;;;;;5080396;28;20043;-74
2022/12/07 05:56:51;;;;;;;19.42;11.30;;;3.10;99.90;;;;;;5081929;28;20023;-74
2022/12/07 05:59:23;;;;;;;19.05;12.15;;;3.10;99.90;;;;;;5071177;28;20070;-74
2022/12/07 06:01:53;;;;;;;18.70;12.20;;;3.00;99.90;;;;;;5073953;28;20032;-74
2022/12/07 06:04:19;;;;;;;18.80;11.90;;;3.00;99.90;;;;;;5077344;28;20075;-74
2022/12/07 06:06:45;;;;;;;18.08;11.45;;;3.00;99.90;;;;;;5079770;28;20028;-73
2022/12/07 06:09:12;;;;;;;17.02;11.23;;;2.90;99.90;;;;;;5079490;28;20035;-74
2022/12/07 06:14:22;;;;;;;19.98;11.50;;;2.90;99.90;;;;;;5082598;28;20046;-74
2022/12/07 06:16:48;;;;;;;19.98;12.05;;;2.90;99.90;;;;;;5079987;28;20393;-74
2022/12/07 06:19:14;;;;;;;23.85;11.82;;;2.90;99.90;;;;;;5075302;28;20040;-73
2022/12/07 06:21:39;;;;;;;24.48;12.07;;;2.90;99.90;;;;;;5082281;28;20032;-73
2022/12/07 06:24:05;;;;;;;20.95;11.52;;;2.90;99.90;;;;;;5072943;28;20471;-74
2022/12/07 06:26:31;;;;;;;20.45;12.68;;;2.90;99.90;;;;;;5082067;28;20032;-74
2022/12/07 06:28:56;;;;;;;19.95;11.50;;;2.90;99.90;;;;;;5081179;28;20493;-74
2022/12/07 06:31:22;;;;;;;17.77;11.75;;;2.90;99.90;;;;;;5076403;28;20039;-73
2022/12/07 06:33:48;;;;;;;21.88;12.80;;;2.90;99.90;;;;;;5086344;28;20421;-73
2022/12/07 06:36:13;;;;;;;23.73;12.13;;;2.90;99.90;;;;;;5078137;28;20036;-74
2022/12/07 06:38:39;;;;;;;21.58;12.25;;;2.80;99.90;;;;;;5079757;28;20436;-73
2022/12/07 06:41:05;;;;;;;21.77;12.40;;;2.80;99.90;;;;;;5079461;28;20513;-73
2022/12/07 06:43:30;;;;;;;30.02;13.07;;;2.90;99.90;;;;;;5079033;28;20039;-73
2022/12/07 06:45:56;;;;;;;25.55;12.85;;;2.80;99.90;;;;;;5078766;28;20107;-73
2022/12/07 06:48:22;;;;;;;24.58;13.25;;;2.90;99.90;;;;;;5076822;28;20035;-73
2022/12/07 06:50:48;;;;;;;22.75;13.40;;;2.90;99.90;;;;;;5070140;28;20485;-73
2022/12/07 06:53:13;;;;;;;29.67;14.10;;;2.90;99.90;;;;;;5078887;28;20090;-73
2022/12/07 06:55:39;;;;;;;25.75;13.93;;;2.90;99.90;;;;;;5079049;28;20498;-72
2022/12/07 06:58:05;;;;;;;23.50;13.88;;;2.90;99.90;;;;;;5074559;28;20028;-73
2022/12/07 07:00:30;;;;;;;22.98;12.25;;;3.00;99.90;;;;;;5076988;28;20029;-73
2022/12/07 07:02:56;;;;;;;23.05;11.30;;;3.00;99.90;;;;;;5070715;28;20077;-73
2022/12/07 07:05:22;;;;;;;22.92;11.32;;;3.00;99.90;;;;;;5074445;28;20446;-73
2022/12/07 07:07:51;;;;;;;20.35;10.32;;;3.00;99.90;;;;;;5079857;28;20024;-72
2022/12/07 07:10:17;;;;;;;16.00;9.15;;;3.00;99.90;;;;;;5070676;28;20117;-72
2022/12/07 07:12:42;;;;;;;18.08;10.63;;;3.00;99.90;;;;;;5062036;28;20106;-71
2022/12/07 07:15:09;;;;;;;21.63;11.15;;;3.00;99.90;;;;;;5075542;28;20039;-72
2022/12/07 07:17:35;;;;;;;21.08;11.32;;;3.00;99.90;;;;;;5079824;28;20032;-72
2022/12/07 07:20:01;;;;;;;20.83;11.75;;;3.00;99.90;;;;;;5080797;28;20028;-71
2022/12/07 07:22:26;;;;;;;22.85;11.98;;;3.10;99.90;;;;;;5080489;28;20051;-71
2022/12/07 07:24:52;;;;;;;22.02;11.25;;;3.10;99.90;;;;;;5083382;28;20032;-72
2022/12/07 07:27:17;;;;;;;16.98;9.70;;;3.00;99.90;;;;;;5079800;28;20032;-72
2022/12/07 07:29:43;;;;;;;19.48;9.90;;;3.10;99.90;;;;;;5077118;28;20032;-72
2022/12/07 07:32:09;;;;;;;17.15;8.80;;;3.10;99.90;;;;;;5073998;28;20036;-72
2022/12/07 07:34:34;;;;;;;14.55;7.65;;;3.00;99.90;;;;;;5072077;28;20032;-73
2022/12/07 07:37:00;;;;;;;19.38;8.25;;;3.00;99.90;;;;;;5083218;28;20067;-73
2022/12/07 07:39:26;;;;;;;14.52;8.38;;;3.00;99.90;;;;;;5083062;28;20077;-72
2022/12/07 07:41:51;;;;;;;17.27;8.75;;;2.90;99.90;;;;;;5083569;28;20063;-73
2022/12/07 07:44:17;;;;;;;23.33;9.65;;;2.90;99.90;;;;;;5080770;28;20100;-72
2022/12/07 07:46:42;;;;;;;16.65;8.68;;;2.90;99.90;;;;;;5083291;28;20048;-72
2022/12/07 07:49:10;;;;;;;16.25;8.63;;;2.90;99.90;;;;;;5083930;28;20032;-72
2022/12/07 07:51:36;;;;;;;21.80;10.02;;;2.90;99.90;;;;;;5086259;28;20241;-72
2022/12/07 07:54:02;;;;;;;21.80;9.80;;;2.90;99.90;;;;;;5083909;28;20099;-73
2022/12/07 07:56:27;;;;;;;18.30;9.75;;;3.10;99.90;;;;;;5076119;28;20047;-73
2022/12/07 07:58:53;;;;;;;18.25;8.77;;;3.10;99.90;;;;;;5081868;28;20032;-73
2022/12/07 08:01:19;;;;;;;19.90;10.23;;;3.00;99.90;;;;;;5083159;28;20064;-73
2022/12/07 08:03:46;;;;;;;17.95;8.98;;;3.00;99.90;;;;;;5080537;28;20051;-73
2022/12/07 08:06:12;;;;;;;18.15;8.60;;;3.10;99.90;;;;;;5083331;28;20054;-73
2022/12/07 08:08:38;;;;;;;18.60;8.40;;;3.10;99.90;;;;;;5081896;28;20567;-73
2022/12/07 08:11:07;;;;;;;20.95;8.55;;;3.00;99.90;;;;;;5086647;28;20028;-73
2022/12/07 08:13:33;;;;;;;16.45;7.95;;;3.00;99.90;;;;;;5084217;28;20093;-73
2022/12/07 08:16:02;;;;;;;14.85;7.80;;;3.80;99.90;;;;;;5079272;28;20028;-73
2022/12/07 08:18:28;;;;;;;17.63;8.10;;;3.00;99.90;;;;;;5077586;28;20139;-73
2022/12/07 08:21:02;;;;;;;13.75;7.50;;;3.00;99.90;;;;;;5088982;28;20510;-73
2022/12/07 08:23:28;;;;;;;15.60;8.00;;;3.00;99.90;;;;;;5080992;28;20094;-73
2022/12/07 08:25:54;;;;;;;17.10;8.38;;;3.10;99.90;;;;;;5085205;28;20024;-73
2022/12/07 08:28:20;;;;;;;18.48;7.60;;;3.00;99.90;;;;;;5084514;28;20027;-73
2022/12/07 08:30:45;;;;;;;14.38;7.10;;;3.10;99.90;;;;;;5087737;28;20605;-73
2022/12/07 08:33:11;;;;;;;17.13;7.78;;;3.10;99.90;;;;;;5078449;28;20035;-73
2022/12/07 08:35:37;;;;;;;17.00;7.95;;;3.10;99.90;;;;;;5078191;28;20136;-73
2022/12/07 08:38:03;;;;;;;20.77;8.38;;;3.20;99.90;;;;;;5083863;28;20388;-73
2022/12/07 08:40:29;;;;;;;26.45;11.77;;;3.20;99.90;;;;;;5084659;28;20051;-73
2022/12/07 08:42:55;;;;;;;30.98;12.43;;;3.30;99.90;;;;;;5075758;28;20433;-73
2022/12/07 08:45:22;;;;;;;28.58;12.90;;;3.30;99.90;;;;;;5079344;28;20067;-73
2022/12/07 08:47:56;;;;;;;27.88;12.20;;;3.30;99.90;;;;;;5083869;28;20432;-73
2022/12/07 08:50:23;;;;;;;23.17;11.73;;;3.30;99.90;;;;;;5085189;28;20028;-73
2022/12/07 08:52:52;;;;;;;21.15;10.02;;;3.40;99.90;;;;;;5080226;28;20445;-73
2022/12/07 08:55:19;;;;;;;20.13;10.20;;;3.40;99.90;;;;;;5084760;28;20098;-73
2022/12/07 08:57:45;;;;;;;17.65;9.20;;;3.50;99.90;;;;;;5084876;28;20032;-74
2022/12/07 09:00:11;;;;;;;19.25;10.02;;;3.50;99.90;;;;;;5085885;28;20486;-73
2022/12/07 09:02:37;;;;;;;19.15;11.05;;;3.70;99.90;;;;;;5082066;28;20748;-73
2022/12/07 09:05:03;;;;;;;31.58;15.48;;;3.70;99.90;;;;;;5085914;28;20020;-73
2022/12/07 09:07:30;;;;;;;35.95;18.77;;;3.80;99.90;;;;;;5076090;28;20029;-72
2022/12/07 09:09:56;;;;;;;20.58;12.30;;;3.90;99.90;;;;;;5080030;28;20413;-74
2022/12/07 09:12:22;;;;;;;20.38;9.93;;;3.90;99.90;;;;;;5074092;28;20122;-74
2022/12/07 09:14:47;;;;;;;17.40;7.88;;;4.00;99.90;;;;;;5080990;28;20039;-73
2022/12/07 09:17:13;;;;;;;16.75;8.20;;;4.10;99.90;;;;;;5079894;28;20100;-73
2022/12/07 09:19:39;;;;;;;15.50;7.55;;;4.00;99.90;;;;;;5075725;28;20032;-73
2022/12/07 09:22:05;;;;;;;12.65;7.55;;;4.00;99.90;;;;;;5081028;28;20497;-73
2022/12/07 09:24:31;;;;;;;11.70;6.13;;;4.00;99.90;;;;;;5084487;28;20061;-73
2022/12/07 09:26:57;;;;;;;11.52;5.78;;;4.00;99.90;;;;;;5078668;28;20051;-73
2022/12/07 09:29:23;;;;;;;15.18;6.07;;;4.00;99.90;;;;;;5079003;28;20036;-73
2022/12/07 09:31:49;;;;;;;20.33;8.48;;;4.00;99.90;;;;;;5081572;28;20073;-73
2022/12/07 09:34:15;;;;;;;12.95;4.97;;;4.10;99.90;;;;;;5073949;28;20032;-74
2022/12/07 09:36:42;;;;;;;8.90;4.72;;;4.10;99.90;;;;;;5077986;28;20059;-74
2022/12/07 09:39:07;;;;;;;7.25;4.03;;;4.10;99.90;;;;;;5072194;28;20043;-73
2022/12/07 09:41:36;;;;;;;7.55;4.32;;;4.20;99.90;;;;;;5073926;28;20031;-74
2022/12/07 09:44:11;;;;;;;10.27;4.20;;;4.30;99.90;;;;;;5066723;28;20493;-72
2022/12/07 09:46:39;;;;;;;12.60;4.68;;;4.30;99.90;;;;;;5068239;28;20089;-73
2022/12/07 09:49:09;;;;;;;8.90;3.90;;;4.40;99.90;;;;;;5068975;28;20027;-73
2022/12/07 09:51:35;;;;;;;12.25;4.40;;;4.50;99.90;;;;;;5078172;28;20056;-74
2022/12/07 09:54:02;;;;;;;12.55;4.75;;;4.40;99.90;;;;;;5062362;28;20139;-74
2022/12/07 09:56:30;;;;;;;6.50;4.22;;;4.50;99.90;;;;;;5064498;28;20116;-74
2022/12/07 09:59:00;;;;;;;10.00;3.88;;;4.60;99.90;;;;;;5079411;28;20138;-73
2022/12/07 10:01:31;;;;;;;7.15;3.60;;;4.60;99.90;;;;;;5075532;28;20093;-73
2022/12/07 10:04:18;;;;;;;7.93;3.40;;;4.60;99.90;;;;;;5076101;28;20056;-73
2022/12/07 10:06:45;;;;;;;8.38;3.67;;;4.60;99.90;;;;;;5079008;28;20032;-74
2022/12/07 10:09:13;;;;;;;12.05;4.07;;;4.60;99.90;;;;;;5069447;28;20096;-75
2022/12/07 10:12:11;;;;;;;10.60;3.38;;;4.60;99.90;;;;;;5077363;28;20048;-74
2022/12/07 10:15:01;;;;;;;10.20;3.55;;;4.70;99.90;;;;;;5081533;28;20027;-74
2022/12/07 10:17:40;;;;;;;8.95;4.13;;;4.70;99.90;;;;;;5076897;28;20036;-73
2022/12/07 10:20:20;;;;;;;5.43;3.17;;;4.70;99.90;;;;;;5076500;28;20128;-73
2022/12/07 10:23:13;;;;;;;9.93;3.92;;;4.80;99.90;;;;;;5079636;28;20106;-73
2022/12/07 10:25:40;;;;;;;10.00;3.28;;;4.80;99.90;;;;;;5071033;28;20830;-74
2022/12/07 10:28:08;;;;;;;7.72;2.90;;;4.90;99.90;;;;;;5078315;28;20044;-72
2022/12/07 10:31:04;;;;;;;8.77;3.00;;;5.10;99.90;;;;;;5085219;28;20032;-74
2022/12/07 10:33:50;;;;;;;10.05;3.03;;;5.20;99.90;;;;;;5075393;28;20030;-73
2022/12/07 10:36:34;;;;;;;8.13;2.67;;;5.20;99.90;;;;;;5079149;28;20054;-73
2022/12/07 10:39:00;;;;;;;10.27;2.90;;;5.20;99.90;;;;;;5083345;28;20038;-73
2022/12/07 10:41:26;;;;;;;9.00;3.05;;;5.30;99.90;;;;;;5076818;28;20020;-72
2022/12/07 10:43:55;;;;;;;8.02;3.08;;;5.30;99.90;;;;;;5074255;28;20046;-72
2022/12/07 10:46:42;;;;;;;7.32;2.63;;;5.30;99.90;;;;;;5065865;28;20071;-72
2022/12/07 10:49:27;;;;;;;6.63;2.58;;;5.20;99.90;;;;;;5071513;28;20324;-72
2022/12/07 10:52:23;;;;;;;3.90;2.40;;;5.10;99.90;;;;;;5077163;28;20366;-73
2022/12/07 10:55:10;;;;;;;6.78;2.25;;;5.00;99.90;;;;;;5075686;28;20039;-72
2022/12/07 10:57:50;;;;;;;5.68;2.13;;;5.00;99.90;;;;;;5076559;28;20028;-73
2022/12/07 11:00:25;;;;;;;7.15;2.80;;;5.00;99.90;;;;;;5081826;28;20043;-72
2022/12/07 11:02:53;;;;;;;5.95;2.70;;;5.00;99.90;;;;;;5082193;28;20020;-73
2022/12/07 11:05:33;;;;;;;7.68;3.33;;;5.00;99.90;;;;;;5075728;28;20509;-72
2022/12/07 11:08:17;;;;;;;8.88;3.30;;;5.00;99.90;;;;;;5071018;28;20036;-72
2022/12/07 11:10:55;;;;;;;5.25;2.30;;;4.90;99.90;;;;;;5077087;28;20082;-72
2022/12/07 11:13:36;;;;;;;5.93;2.88;;;4.90;99.90;;;;;;5075446;28;20020;-73
2022/12/07 11:16:11;;;;;;;9.27;3.65;;;4.90;99.90;;;;;;5074441;28;20416;-72
2022/12/07 11:19:14;;;;;;;7.60;3.25;;;4.90;99.90;;;;;;5083159;28;20081;-73
2022/12/07 11:22:05;;;;;;;12.23;5.03;;;4.80;99.90;;;;;;5074273;28;20107;-72
2022/12/07 11:24:43;;;;;;;6.70;3.05;;;4.80;99.90;;;;;;5075694;28;20031;-72
2022/12/07 11:27:30;;;;;;;4.18;2.05;;;4.70;99.90;;;;;;5080004;28;20035;-72
2022/12/07 11:30:20;;;;;;;3.40;1.90;;;4.60;99.90;;;;;;5082439;28;20090;-72
2022/12/07 11:33:14;;;;;;;5.28;2.30;;;4.60;99.90;;;;;;5079597;28;22102;-72
2022/12/07 11:35:56;;;;;;;5.15;2.60;;;4.50;99.90;;;;;;5074751;28;20111;-72
2022/12/07 11:38:37;;;;;;;5.57;2.30;;;4.40;99.90;;;;;;5069398;28;20067;-73
2022/12/07 11:41:14;;;;;;;4.95;2.55;;;4.40;99.90;;;;;;5078900;28;20286;-72
2022/12/07 11:43:54;;;;;;;8.50;3.67;;;4.40;99.90;;;;;;5076128;28;20085;-72
2022/12/07 11:46:25;;;;;;;4.65;1.83;;;4.40;99.90;;;;;;5066633;28;20036;-72
2022/12/07 11:49:04;;;;;;;3.90;1.90;;;4.50;99.90;;;;;;5063207;28;20036;-73
2022/12/07 11:51:35;;;;;;;4.43;2.08;;;4.60;99.90;;;;;;5076010;28;20032;-72
2022/12/07 11:54:20;;;;;;;4.68;2.13;;;4.60;99.90;;;;;;5076652;28;20108;-73
2022/12/07 11:56:49;;;;;;;4.70;2.40;;;4.60;99.90;;;;;;5072679;28;20032;-72
2022/12/07 11:59:25;;;;;;;7.55;2.70;;;4.50;99.90;;;;;;5072162;28;20099;-72
2022/12/07 12:02:17;;;;;;;5.60;3.03;;;4.50;99.90;;;;;;5074865;28;20051;-72
2022/12/07 12:05:05;;;;;;;5.40;2.92;;;4.50;99.90;;;;;;5082155;28;20056;-73
2022/12/07 12:07:31;;;;;;;5.22;3.03;;;4.60;99.90;;;;;;5078460;28;20483;-73
2022/12/07 12:10:04;;;;;;;5.57;2.20;;;4.60;99.90;;;;;;5080605;28;20037;-72
2022/12/07 12:12:58;;;;;;;5.88;2.50;;;4.60;99.90;;;;;;5074382;28;20031;-73
2022/12/07 12:16:04;;;;;;;6.07;2.90;;;4.60;99.90;;;;;;5076736;28;20033;-73
2022/12/07 12:18:51;;;;;;;8.00;3.03;;;4.60;99.90;;;;;;5076649;28;20024;-72
2022/12/07 12:21:22;;;;;;;7.15;3.08;;;4.70;99.90;;;;;;5068975;28;20071;-73
2022/12/07 12:23:58;;;;;;;6.32;3.83;;;4.70;99.90;;;;;;5072423;28;20129;-73
2022/12/07 12:26:28;;;;;;;7.50;4.32;;;4.70;99.90;;;;;;5086874;28;20022;-73
2022/12/07 12:28:58;;;;;;;9.13;3.55;;;4.70;99.90;;;;;;5075684;28;20101;-73
2022/12/07 12:31:27;;;;;;;7.25;3.70;;;4.80;99.90;;;;;;5086728;28;20505;-73
2022/12/07 12:33:55;;;;;;;7.57;3.80;;;4.80;99.90;;;;;;5072971;28;20028;-72
2022/12/07 12:36:26;;;;;;;15.13;5.05;;;4.80;99.90;;;;;;5072521;28;20313;-73
2022/12/07 12:39:06;;;;;;;10.80;4.95;;;4.70;99.90;;;;;;5071350;28;20042;-72
2022/12/07 12:41:39;;;;;;;6.60;2.83;;;4.70;99.90;;;;;;5074671;28;20037;-73
2022/12/07 12:44:31;;;;;;;5.03;1.88;;;4.70;99.90;;;;;;5082696;28;20032;-72
2022/12/07 12:47:02;;;;;;;4.43;1.75;;;4.70;99.90;;;;;;5071632;28;20036;-72
2022/12/07 12:49:28;;;;;;;7.97;1.98;;;4.60;99.90;;;;;;5086074;28;20226;-72
2022/12/07 12:51:59;;;;;;;6.80;2.40;;;4.50;99.90;;;;;;5083611;28;20229;-72
2022/12/07 12:54:30;;;;;;;3.97;1.58;;;4.50;99.90;;;;;;5073733;28;20049;-72
2022/12/07 12:57:27;;;;;;;5.00;2.13;;;4.50;99.90;;;;;;5072480;28;20102;-72
2022/12/07 12:59:52;;;;;;;5.97;2.17;;;4.50;99.90;;;;;;5075837;28;21039;-72
2022/12/07 13:02:36;;;;;;;9.57;2.80;;;4.50;99.90;;;;;;5074435;28;20291;-72
2022/12/07 13:05:09;;;;;;;7.57;2.78;;;4.50;99.90;;;;;;5076955;28;20504;-72